sensor_id;sensor_type;location;lat;lon;timestamp;P1;durP1;ratioP1;P2;durP2;ratioP2
3757;SDS011;1894;51.038;13.692;2022-10-16T00:01:38;16.30;;;14.20;;
3757;SDS011;1894;51.038;13.692;2022-10-16T00:04:05;12.77;;;11.47;;
3757;SDS011;1894;51.038;13.692;2022-10-16T00:06:32;17.57;;;14.03;;
3757;SDS011;1894;51.038;13.692;2022-10-16T00:08:59;16.90;;;13.87;;
3757;SDS011;1894;51.038;13.692;2022-10-16T00:11:28;15.70;;;12.83;;
3757;SDS011;1894;51.038;13.692;2022-10-16T00:14:00;12.83;;;11.17;;
3757;SDS011;1894;51.038;13.692;2022-10-16T00:16:30;17.33;;;12.67;;
3757;SDS011;1894;51.038;13.692;2022-10-16T00:18:57;14.20;;;11.47;;
3757;SDS011;1894;51.038;13.692;2022-10-16T00:21:28;12.87;;;11.43;;
3757;SDS011;1894;51.038;13.692;2022-10-16T00:23:57;20.07;;;11.60;;
3757;SDS011;1894;51.038;13.692;2022-10-16T00:26:28;14.33;;;12.90;;
3757;SDS011;1894;51.038;13.692;2022-10-16T00:28:58;13.70;;;11.90;;
3757;SDS011;1894;51.038;13.692;2022-10-16T00:31:25;16.30;;;11.17;;
3757;SDS011;1894;51.038;13.692;2022-10-16T00:33:54;11.50;;;10.40;;
3757;SDS011;1894;51.038;13.692;2022-10-16T00:36:22;13.60;;;9.50;;
3757;SDS011;1894;51.038;13.692;2022-10-16T00:38:51;13.30;;;10.00;;
3757;SDS011;1894;51.038;13.692;2022-10-16T00:41:21;16.93;;;11.57;;
3757;SDS011;1894;51.038;13.692;2022-10-16T00:49:10;10.00;;;9.00;;
3757;SDS011;1894;51.038;13.692;2022-10-16T00:51:40;9.70;;;8.80;;
3757;SDS011;1894;51.038;13.692;2022-10-16T00:54:13;12.03;;;9.50;;
3757;SDS011;1894;51.038;13.692;2022-10-16T00:56:47;10.97;;;8.80;;
3757;SDS011;1894;51.038;13.692;2022-10-16T00:59:22;9.97;;;8.97;;
3757;SDS011;1894;51.038;13.692;2022-10-16T01:01:56;14.80;;;10.30;;
3757;SDS011;1894;51.038;13.692;2022-10-16T01:04:25;8.57;;;7.60;;
3757;SDS011;1894;51.038;13.692;2022-10-16T01:06:59;12.00;;;8.00;;
3757;SDS011;1894;51.038;13.692;2022-10-16T01:18:54;10.83;;;9.13;;
3757;SDS011;1894;51.038;13.692;2022-10-16T01:21:07;10.43;;;8.70;;
3757;SDS011;1894;51.038;13.692;2022-10-16T01:32:27;11.40;;;6.97;;
3757;SDS011;1894;51.038;13.692;2022-10-16T01:37:52;7.70;;;6.83;;
3757;SDS011;1894;51.038;13.692;2022-10-16T01:40:42;8.50;;;6.93;;
3757;SDS011;1894;51.038;13.692;2022-10-16T01:43:38;7.40;;;6.70;;
3757;SDS011;1894;51.038;13.692;2022-10-16T01:46:16;8.83;;;6.77;;
3757;SDS011;1894;51.038;13.692;2022-10-16T01:48:47;7.53;;;5.60;;
3757;SDS011;1894;51.038;13.692;2022-10-16T01:51:16;6.63;;;5.90;;
3757;SDS011;1894;51.038;13.692;2022-10-16T01:53:48;7.20;;;6.13;;
3757;SDS011;1894;51.038;13.692;2022-10-16T01:56:19;8.60;;;6.93;;
3757;SDS011;1894;51.038;13.692;2022-10-16T01:59:09;8.77;;;7.53;;
3757;SDS011;1894;51.038;13.692;2022-10-16T02:01:40;7.80;;;7.00;;
3757;SDS011;1894;51.038;13.692;2022-10-16T02:04:23;8.60;;;7.30;;
3757;SDS011;1894;51.038;13.692;2022-10-16T02:06:55;9.83;;;7.50;;
3757;SDS011;1894;51.038;13.692;2022-10-16T02:09:23;11.93;;;7.90;;
3757;SDS011;1894;51.038;13.692;2022-10-16T02:11:51;7.70;;;7.00;;
3757;SDS011;1894;51.038;13.692;2022-10-16T02:14:21;10.90;;;8.00;;
3757;SDS011;1894;51.038;13.692;2022-10-16T02:16:50;10.80;;;8.80;;
3757;SDS011;1894;51.038;13.692;2022-10-16T02:19:18;8.97;;;7.10;;
3757;SDS011;1894;51.038;13.692;2022-10-16T02:27:11;9.13;;;6.87;;
3757;SDS011;1894;51.038;13.692;2022-10-16T02:29:53;10.53;;;6.90;;
3757;SDS011;1894;51.038;13.692;2022-10-16T02:32:33;6.30;;;5.70;;
3757;SDS011;1894;51.038;13.692;2022-10-16T02:35:06;7.93;;;7.20;;
3757;SDS011;1894;51.038;13.692;2022-10-16T02:37:34;8.87;;;7.07;;
3757;SDS011;1894;51.038;13.692;2022-10-16T02:40:03;6.63;;;6.13;;
3757;SDS011;1894;51.038;13.692;2022-10-16T02:42:36;7.90;;;6.73;;
3757;SDS011;1894;51.038;13.692;2022-10-16T02:45:07;9.93;;;7.40;;
3757;SDS011;1894;51.038;13.692;2022-10-16T02:47:36;9.50;;;6.20;;
3757;SDS011;1894;51.038;13.692;2022-10-16T02:50:03;9.77;;;7.00;;
3757;SDS011;1894;51.038;13.692;2022-10-16T02:52:31;7.03;;;6.33;;
3757;SDS011;1894;51.038;13.692;2022-10-16T02:54:58;6.67;;;5.80;;
3757;SDS011;1894;51.038;13.692;2022-10-16T02:57:25;8.40;;;6.47;;
3757;SDS011;1894;51.038;13.692;2022-10-16T02:59:53;7.40;;;6.67;;
3757;SDS011;1894;51.038;13.692;2022-10-16T03:02:20;7.80;;;6.90;;
3757;SDS011;1894;51.038;13.692;2022-10-16T03:04:47;6.57;;;5.97;;
3757;SDS011;1894;51.038;13.692;2022-10-16T03:07:14;10.27;;;9.13;;
3757;SDS011;1894;51.038;13.692;2022-10-16T03:09:42;10.47;;;7.33;;
3757;SDS011;1894;51.038;13.692;2022-10-16T03:12:09;8.10;;;7.30;;
3757;SDS011;1894;51.038;13.692;2022-10-16T03:14:38;9.70;;;8.07;;
3757;SDS011;1894;51.038;13.692;2022-10-16T03:17:06;10.23;;;7.90;;
3757;SDS011;1894;51.038;13.692;2022-10-16T03:19:33;9.37;;;8.47;;
3757;SDS011;1894;51.038;13.692;2022-10-16T03:22:02;7.13;;;6.43;;
3757;SDS011;1894;51.038;13.692;2022-10-16T03:24:29;7.17;;;6.47;;
3757;SDS011;1894;51.038;13.692;2022-10-16T03:26:56;9.60;;;8.13;;
3757;SDS011;1894;51.038;13.692;2022-10-16T03:29:23;8.30;;;7.60;;
3757;SDS011;1894;51.038;13.692;2022-10-16T03:31:52;12.20;;;7.30;;
3757;SDS011;1894;51.038;13.692;2022-10-16T03:34:19;7.97;;;6.50;;
3757;SDS011;1894;51.038;13.692;2022-10-16T03:36:46;5.97;;;5.40;;
3757;SDS011;1894;51.038;13.692;2022-10-16T03:39:13;7.67;;;6.60;;
3757;SDS011;1894;51.038;13.692;2022-10-16T03:41:40;5.33;;;4.83;;
3757;SDS011;1894;51.038;13.692;2022-10-16T03:44:07;5.83;;;4.90;;
3757;SDS011;1894;51.038;13.692;2022-10-16T03:46:34;6.87;;;5.03;;
3757;SDS011;1894;51.038;13.692;2022-10-16T03:49:01;6.10;;;4.57;;
3757;SDS011;1894;51.038;13.692;2022-10-16T03:51:34;9.73;;;5.10;;
3757;SDS011;1894;51.038;13.692;2022-10-16T03:54:01;4.63;;;4.23;;
3757;SDS011;1894;51.038;13.692;2022-10-16T03:56:28;4.00;;;3.70;;
3757;SDS011;1894;51.038;13.692;2022-10-16T03:58:55;4.30;;;3.90;;
3757;SDS011;1894;51.038;13.692;2022-10-16T04:01:22;5.93;;;4.07;;
3757;SDS011;1894;51.038;13.692;2022-10-16T04:03:49;4.60;;;4.20;;
3757;SDS011;1894;51.038;13.692;2022-10-16T04:06:16;4.00;;;3.60;;
3757;SDS011;1894;51.038;13.692;2022-10-16T04:08:44;9.57;;;3.30;;
3757;SDS011;1894;51.038;13.692;2022-10-16T04:11:11;4.40;;;3.70;;
3757;SDS011;1894;51.038;13.692;2022-10-16T04:13:38;4.70;;;3.90;;
3757;SDS011;1894;51.038;13.692;2022-10-16T04:16:05;8.30;;;4.40;;
3757;SDS011;1894;51.038;13.692;2022-10-16T04:18:32;4.73;;;4.43;;
3757;SDS011;1894;51.038;13.692;2022-10-16T04:21:03;5.37;;;4.87;;
3757;SDS011;1894;51.038;13.692;2022-10-16T04:23:32;6.07;;;5.47;;
3757;SDS011;1894;51.038;13.692;2022-10-16T04:25:59;4.83;;;4.40;;
3757;SDS011;1894;51.038;13.692;2022-10-16T04:28:27;5.80;;;5.30;;
3757;SDS011;1894;51.038;13.692;2022-10-16T04:30:54;5.03;;;4.53;;
3757;SDS011;1894;51.038;13.692;2022-10-16T04:33:21;7.00;;;6.17;;
3757;SDS011;1894;51.038;13.692;2022-10-16T04:35:55;7.17;;;6.47;;
3757;SDS011;1894;51.038;13.692;2022-10-16T04:38:27;9.30;;;6.80;;
3757;SDS011;1894;51.038;13.692;2022-10-16T04:40:54;7.30;;;6.60;;
3757;SDS011;1894;51.038;13.692;2022-10-16T04:43:21;8.07;;;7.37;;
3757;SDS011;1894;51.038;13.692;2022-10-16T04:45:49;6.90;;;6.20;;
3757;SDS011;1894;51.038;13.692;2022-10-16T04:48:20;7.47;;;6.77;;
3757;SDS011;1894;51.038;13.692;2022-10-16T04:50:48;7.23;;;5.63;;
3757;SDS011;1894;51.038;13.692;2022-10-16T04:53:20;7.77;;;6.50;;
3757;SDS011;1894;51.038;13.692;2022-10-16T04:55:47;7.93;;;7.13;;
3757;SDS011;1894;51.038;13.692;2022-10-16T04:58:15;7.13;;;6.30;;
3757;SDS011;1894;51.038;13.692;2022-10-16T05:00:42;7.33;;;6.63;;
3757;SDS011;1894;51.038;13.692;2022-10-16T05:03:10;13.50;;;9.03;;
3757;SDS011;1894;51.038;13.692;2022-10-16T05:05:41;5.97;;;5.47;;
3757;SDS011;1894;51.038;13.692;2022-10-16T05:08:14;7.40;;;6.70;;
3757;SDS011;1894;51.038;13.692;2022-10-16T05:10:42;8.07;;;6.17;;
3757;SDS011;1894;51.038;13.692;2022-10-16T05:13:11;7.50;;;6.77;;
3757;SDS011;1894;51.038;13.692;2022-10-16T05:15:38;5.63;;;4.97;;
3757;SDS011;1894;51.038;13.692;2022-10-16T05:18:06;7.20;;;6.60;;
3757;SDS011;1894;51.038;13.692;2022-10-16T05:20:34;6.57;;;5.83;;
3757;SDS011;1894;51.038;13.692;2022-10-16T05:23:01;5.67;;;5.27;;
3757;SDS011;1894;51.038;13.692;2022-10-16T05:25:28;5.35;;;4.85;;
3757;SDS011;1894;51.038;13.692;2022-10-16T05:27:55;5.00;;;4.60;;
3757;SDS011;1894;51.038;13.692;2022-10-16T05:30:22;5.50;;;4.40;;
3757;SDS011;1894;51.038;13.692;2022-10-16T05:32:49;7.27;;;4.47;;
3757;SDS011;1894;51.038;13.692;2022-10-16T05:35:18;5.90;;;5.30;;
3757;SDS011;1894;51.038;13.692;2022-10-16T05:37:46;6.30;;;5.07;;
3757;SDS011;1894;51.038;13.692;2022-10-16T05:40:14;4.70;;;4.27;;
3757;SDS011;1894;51.038;13.692;2022-10-16T05:42:43;6.50;;;4.73;;
3757;SDS011;1894;51.038;13.692;2022-10-16T05:45:10;5.30;;;3.90;;
3757;SDS011;1894;51.038;13.692;2022-10-16T05:47:38;4.53;;;4.13;;
3757;SDS011;1894;51.038;13.692;2022-10-16T05:50:06;5.87;;;5.27;;
3757;SDS011;1894;51.038;13.692;2022-10-16T05:52:33;5.37;;;4.97;;
3757;SDS011;1894;51.038;13.692;2022-10-16T05:55:00;4.57;;;4.27;;
3757;SDS011;1894;51.038;13.692;2022-10-16T05:57:28;4.57;;;4.17;;
3757;SDS011;1894;51.038;13.692;2022-10-16T05:59:55;6.77;;;5.70;;
3757;SDS011;1894;51.038;13.692;2022-10-16T06:02:22;11.33;;;5.37;;
3757;SDS011;1894;51.038;13.692;2022-10-16T06:04:51;13.50;;;6.97;;
3757;SDS011;1894;51.038;13.692;2022-10-16T06:07:20;6.97;;;4.67;;
3757;SDS011;1894;51.038;13.692;2022-10-16T06:09:49;8.73;;;4.77;;
3757;SDS011;1894;51.038;13.692;2022-10-16T06:12:17;7.40;;;4.97;;
3757;SDS011;1894;51.038;13.692;2022-10-16T06:14:46;6.80;;;4.87;;
3757;SDS011;1894;51.038;13.692;2022-10-16T06:17:13;4.20;;;3.80;;
3757;SDS011;1894;51.038;13.692;2022-10-16T06:19:41;7.67;;;5.13;;
3757;SDS011;1894;51.038;13.692;2022-10-16T06:22:08;5.90;;;5.07;;
3757;SDS011;1894;51.038;13.692;2022-10-16T06:24:36;5.57;;;4.93;;
3757;SDS011;1894;51.038;13.692;2022-10-16T06:27:03;6.30;;;4.70;;
3757;SDS011;1894;51.038;13.692;2022-10-16T06:29:31;17.23;;;13.87;;
3757;SDS011;1894;51.038;13.692;2022-10-16T06:31:58;8.00;;;6.40;;
3757;SDS011;1894;51.038;13.692;2022-10-16T06:34:26;9.63;;;7.03;;
3757;SDS011;1894;51.038;13.692;2022-10-16T06:36:53;6.03;;;5.50;;
3757;SDS011;1894;51.038;13.692;2022-10-16T06:39:20;10.43;;;6.30;;
3757;SDS011;1894;51.038;13.692;2022-10-16T06:41:47;5.67;;;5.10;;
3757;SDS011;1894;51.038;13.692;2022-10-16T06:44:15;11.80;;;7.53;;
3757;SDS011;1894;51.038;13.692;2022-10-16T06:46:42;5.97;;;4.80;;
3757;SDS011;1894;51.038;13.692;2022-10-16T06:49:09;8.47;;;6.10;;
3757;SDS011;1894;51.038;13.692;2022-10-16T06:51:36;5.33;;;4.80;;
3757;SDS011;1894;51.038;13.692;2022-10-16T06:54:08;9.57;;;5.87;;
3757;SDS011;1894;51.038;13.692;2022-10-16T06:56:36;7.43;;;5.33;;
3757;SDS011;1894;51.038;13.692;2022-10-16T06:59:04;8.83;;;6.93;;
3757;SDS011;1894;51.038;13.692;2022-10-16T07:01:31;5.90;;;5.40;;
3757;SDS011;1894;51.038;13.692;2022-10-16T07:03:59;8.03;;;6.97;;
3757;SDS011;1894;51.038;13.692;2022-10-16T07:06:30;5.60;;;5.00;;
3757;SDS011;1894;51.038;13.692;2022-10-16T07:09:02;11.13;;;9.33;;
3757;SDS011;1894;51.038;13.692;2022-10-16T07:11:32;5.90;;;5.40;;
3757;SDS011;1894;51.038;13.692;2022-10-16T07:14:00;8.10;;;5.47;;
3757;SDS011;1894;51.038;13.692;2022-10-16T07:16:28;13.80;;;8.77;;
3757;SDS011;1894;51.038;13.692;2022-10-16T07:18:58;18.73;;;7.53;;
3757;SDS011;1894;51.038;13.692;2022-10-16T07:21:31;10.67;;;8.77;;
3757;SDS011;1894;51.038;13.692;2022-10-16T07:24:04;6.20;;;5.37;;
3757;SDS011;1894;51.038;13.692;2022-10-16T07:26:34;6.30;;;5.70;;
3757;SDS011;1894;51.038;13.692;2022-10-16T07:29:06;7.00;;;6.30;;
3757;SDS011;1894;51.038;13.692;2022-10-16T07:31:43;20.97;;;15.20;;
3757;SDS011;1894;51.038;13.692;2022-10-16T07:34:11;7.40;;;6.10;;
3757;SDS011;1894;51.038;13.692;2022-10-16T07:36:40;9.40;;;7.20;;
3757;SDS011;1894;51.038;13.692;2022-10-16T07:39:12;6.97;;;6.10;;
3757;SDS011;1894;51.038;13.692;2022-10-16T07:41:39;15.97;;;11.17;;
3757;SDS011;1894;51.038;13.692;2022-10-16T07:44:06;12.37;;;8.30;;
3757;SDS011;1894;51.038;13.692;2022-10-16T07:46:34;11.83;;;9.87;;
3757;SDS011;1894;51.038;13.692;2022-10-16T07:49:02;12.50;;;7.33;;
3757;SDS011;1894;51.038;13.692;2022-10-16T07:51:30;14.63;;;12.13;;
3757;SDS011;1894;51.038;13.692;2022-10-16T07:53:57;11.57;;;6.87;;
3757;SDS011;1894;51.038;13.692;2022-10-16T07:56:24;6.77;;;6.17;;
3757;SDS011;1894;51.038;13.692;2022-10-16T07:58:52;8.00;;;7.30;;
3757;SDS011;1894;51.038;13.692;2022-10-16T08:01:19;13.00;;;10.43;;
3757;SDS011;1894;51.038;13.692;2022-10-16T08:03:47;11.70;;;8.80;;
3757;SDS011;1894;51.038;13.692;2022-10-16T08:06:17;19.03;;;16.70;;
3757;SDS011;1894;51.038;13.692;2022-10-16T08:08:53;18.60;;;14.47;;
3757;SDS011;1894;51.038;13.692;2022-10-16T08:11:21;6.67;;;6.07;;
3757;SDS011;1894;51.038;13.692;2022-10-16T08:13:49;6.37;;;5.83;;
3757;SDS011;1894;51.038;13.692;2022-10-16T08:16:16;7.53;;;6.83;;
3757;SDS011;1894;51.038;13.692;2022-10-16T08:18:44;10.70;;;6.90;;
3757;SDS011;1894;51.038;13.692;2022-10-16T08:21:15;10.73;;;9.57;;
3757;SDS011;1894;51.038;13.692;2022-10-16T08:23:46;9.77;;;8.80;;
3757;SDS011;1894;51.038;13.692;2022-10-16T08:26:22;11.43;;;9.30;;
3757;SDS011;1894;51.038;13.692;2022-10-16T08:28:50;9.10;;;7.73;;
3757;SDS011;1894;51.038;13.692;2022-10-16T08:31:18;8.80;;;5.70;;
3757;SDS011;1894;51.038;13.692;2022-10-16T08:33:46;6.00;;;5.47;;
3757;SDS011;1894;51.038;13.692;2022-10-16T08:36:14;6.60;;;6.00;;
3757;SDS011;1894;51.038;13.692;2022-10-16T08:38:54;8.60;;;7.80;;
3757;SDS011;1894;51.038;13.692;2022-10-16T08:50:26;8.60;;;7.80;;
3757;SDS011;1894;51.038;13.692;2022-10-16T08:52:56;10.40;;;9.30;;
3757;SDS011;1894;51.038;13.692;2022-10-16T08:58:16;8.20;;;7.40;;
3757;SDS011;1894;51.038;13.692;2022-10-16T09:00:53;8.60;;;7.80;;
3757;SDS011;1894;51.038;13.692;2022-10-16T09:12:33;8.40;;;7.40;;
3757;SDS011;1894;51.038;13.692;2022-10-16T09:23:38;6.63;;;6.00;;
3757;SDS011;1894;51.038;13.692;2022-10-16T09:26:08;6.53;;;4.93;;
3757;SDS011;1894;51.038;13.692;2022-10-16T09:28:38;5.57;;;5.10;;
3757;SDS011;1894;51.038;13.692;2022-10-16T09:31:10;5.90;;;5.37;;
3757;SDS011;1894;51.038;13.692;2022-10-16T09:33:50;1.07;;;0.97;;
3757;SDS011;1894;51.038;13.692;2022-10-16T09:36:25;0.80;;;0.70;;
3757;SDS011;1894;51.038;13.692;2022-10-16T09:39:04;0.67;;;0.60;;
3757;SDS011;1894;51.038;13.692;2022-10-16T09:41:34;1.43;;;0.73;;
3757;SDS011;1894;51.038;13.692;2022-10-16T09:44:06;2.10;;;0.70;;
3757;SDS011;1894;51.038;13.692;2022-10-16T09:47:00;6.07;;;0.80;;
3757;SDS011;1894;51.038;13.692;2022-10-16T09:49:37;2.20;;;0.60;;
3757;SDS011;1894;51.038;13.692;2022-10-16T09:52:05;1.70;;;0.60;;
3757;SDS011;1894;51.038;13.692;2022-10-16T09:54:49;0.70;;;0.60;;
3757;SDS011;1894;51.038;13.692;2022-10-16T09:57:24;0.60;;;0.50;;
3757;SDS011;1894;51.038;13.692;2022-10-16T09:59:54;4.93;;;0.90;;
3757;SDS011;1894;51.038;13.692;2022-10-16T10:05:04;0.90;;;0.60;;
3757;SDS011;1894;51.038;13.692;2022-10-16T10:07:45;0.70;;;0.60;;
3757;SDS011;1894;51.038;13.692;2022-10-16T10:10:23;0.60;;;0.50;;
3757;SDS011;1894;51.038;13.692;2022-10-16T10:12:55;0.80;;;0.50;;
3757;SDS011;1894;51.038;13.692;2022-10-16T10:15:23;1.83;;;0.57;;
3757;SDS011;1894;51.038;13.692;2022-10-16T10:17:54;1.30;;;0.70;;
3757;SDS011;1894;51.038;13.692;2022-10-16T10:22:53;1.20;;;1.10;;
3757;SDS011;1894;51.038;13.692;2022-10-16T10:25:26;1.93;;;0.60;;
3757;SDS011;1894;51.038;13.692;2022-10-16T10:36:58;1.10;;;0.60;;
3757;SDS011;1894;51.038;13.692;2022-10-16T10:39:47;1.00;;;0.60;;
3757;SDS011;1894;51.038;13.692;2022-10-16T10:45:42;0.67;;;0.60;;
3757;SDS011;1894;51.038;13.692;2022-10-16T10:59:54;0.90;;;0.60;;
3757;SDS011;1894;51.038;13.692;2022-10-16T11:05:35;0.70;;;0.60;;
3757;SDS011;1894;51.038;13.692;2022-10-16T11:08:19;0.50;;;0.40;;
3757;SDS011;1894;51.038;13.692;2022-10-16T11:11:08;0.70;;;0.50;;
3757;SDS011;1894;51.038;13.692;2022-10-16T11:13:55;0.90;;;0.60;;
3757;SDS011;1894;51.038;13.692;2022-10-16T11:17:04;0.60;;;0.50;;
3757;SDS011;1894;51.038;13.692;2022-10-16T11:19:50;0.70;;;0.50;;
3757;SDS011;1894;51.038;13.692;2022-10-16T11:25:26;0.60;;;0.50;;
3757;SDS011;1894;51.038;13.692;2022-10-16T11:30:49;2.30;;;0.60;;
3757;SDS011;1894;51.038;13.692;2022-10-16T11:41:52;1.13;;;0.60;;
3757;SDS011;1894;51.038;13.692;2022-10-16T11:50:23;0.87;;;0.63;;
3757;SDS011;1894;51.038;13.692;2022-10-16T11:56:11;1.73;;;0.60;;
3757;SDS011;1894;51.038;13.692;2022-10-16T12:01:41;1.20;;;0.60;;
3757;SDS011;1894;51.038;13.692;2022-10-16T12:04:34;0.70;;;0.60;;
3757;SDS011;1894;51.038;13.692;2022-10-16T12:07:12;3.27;;;0.57;;
3757;SDS011;1894;51.038;13.692;2022-10-16T12:09:47;3.60;;;0.80;;
3757;SDS011;1894;51.038;13.692;2022-10-16T12:12:26;0.70;;;0.70;;
3757;SDS011;1894;51.038;13.692;2022-10-16T12:17:52;1.23;;;0.70;;
3757;SDS011;1894;51.038;13.692;2022-10-16T12:20:21;1.57;;;0.50;;
3757;SDS011;1894;51.038;13.692;2022-10-16T12:28:04;8.83;;;0.83;;
3757;SDS011;1894;51.038;13.692;2022-10-16T12:30:55;2.60;;;0.60;;
3757;SDS011;1894;51.038;13.692;2022-10-16T12:33:29;0.73;;;0.53;;
3757;SDS011;1894;51.038;13.692;2022-10-16T12:36:00;0.70;;;0.60;;
3757;SDS011;1894;51.038;13.692;2022-10-16T12:38:35;0.80;;;0.60;;
3757;SDS011;1894;51.038;13.692;2022-10-16T12:41:23;2.40;;;0.50;;
3757;SDS011;1894;51.038;13.692;2022-10-16T12:43:52;3.77;;;1.00;;
3757;SDS011;1894;51.038;13.692;2022-10-16T12:46:39;1.67;;;0.60;;
3757;SDS011;1894;51.038;13.692;2022-10-16T12:51:40;1.97;;;0.60;;
3757;SDS011;1894;51.038;13.692;2022-10-16T12:54:12;0.60;;;0.50;;
3757;SDS011;1894;51.038;13.692;2022-10-16T12:59:58;0.80;;;0.60;;
3757;SDS011;1894;51.038;13.692;2022-10-16T13:23:02;0.60;;;0.60;;
3757;SDS011;1894;51.038;13.692;2022-10-16T13:28:58;3.73;;;0.90;;
3757;SDS011;1894;51.038;13.692;2022-10-16T13:31:27;0.97;;;0.67;;
3757;SDS011;1894;51.038;13.692;2022-10-16T13:33:57;2.43;;;0.90;;
3757;SDS011;1894;51.038;13.692;2022-10-16T13:36:27;2.30;;;0.70;;
3757;SDS011;1894;51.038;13.692;2022-10-16T13:39:16;2.50;;;0.70;;
3757;SDS011;1894;51.038;13.692;2022-10-16T13:42:02;1.83;;;0.70;;
3757;SDS011;1894;51.038;13.692;2022-10-16T13:44:42;3.70;;;0.70;;
3757;SDS011;1894;51.038;13.692;2022-10-16T13:47:16;1.57;;;0.70;;
3757;SDS011;1894;51.038;13.692;2022-10-16T13:49:46;2.33;;;0.83;;
3757;SDS011;1894;51.038;13.692;2022-10-16T13:52:29;1.33;;;0.87;;
3757;SDS011;1894;51.038;13.692;2022-10-16T13:54:57;1.10;;;0.80;;
3757;SDS011;1894;51.038;13.692;2022-10-16T13:57:27;1.40;;;0.80;;
3757;SDS011;1894;51.038;13.692;2022-10-16T13:59:55;1.47;;;0.70;;
3757;SDS011;1894;51.038;13.692;2022-10-16T14:02:25;3.97;;;1.00;;
3757;SDS011;1894;51.038;13.692;2022-10-16T14:05:04;2.87;;;0.77;;
3757;SDS011;1894;51.038;13.692;2022-10-16T14:07:36;1.73;;;0.90;;
3757;SDS011;1894;51.038;13.692;2022-10-16T14:10:18;3.27;;;0.90;;
3757;SDS011;1894;51.038;13.692;2022-10-16T14:13:00;2.27;;;1.10;;
3757;SDS011;1894;51.038;13.692;2022-10-16T14:15:31;1.87;;;0.93;;
3757;SDS011;1894;51.038;13.692;2022-10-16T14:18:01;1.40;;;1.10;;
3757;SDS011;1894;51.038;13.692;2022-10-16T14:20:30;1.43;;;1.10;;
3757;SDS011;1894;51.038;13.692;2022-10-16T14:23:04;2.03;;;1.53;;
3757;SDS011;1894;51.038;13.692;2022-10-16T14:25:45;1.30;;;1.00;;
3757;SDS011;1894;51.038;13.692;2022-10-16T14:28:20;1.93;;;1.10;;
3757;SDS011;1894;51.038;13.692;2022-10-16T14:38:35;1.83;;;0.93;;
3757;SDS011;1894;51.038;13.692;2022-10-16T14:41:06;0.97;;;0.87;;
3757;SDS011;1894;51.038;13.692;2022-10-16T14:43:37;1.27;;;0.93;;
3757;SDS011;1894;51.038;13.692;2022-10-16T14:46:09;3.53;;;0.90;;
3757;SDS011;1894;51.038;13.692;2022-10-16T14:48:41;1.70;;;1.00;;
3757;SDS011;1894;51.038;13.692;2022-10-16T14:51:14;1.13;;;0.90;;
3757;SDS011;1894;51.038;13.692;2022-10-16T14:53:45;2.27;;;1.87;;
3757;SDS011;1894;51.038;13.692;2022-10-16T14:56:17;2.00;;;0.97;;
3757;SDS011;1894;51.038;13.692;2022-10-16T14:58:48;5.83;;;1.03;;
3757;SDS011;1894;51.038;13.692;2022-10-16T15:01:17;1.63;;;0.93;;
3757;SDS011;1894;51.038;13.692;2022-10-16T15:03:45;1.30;;;1.20;;
3757;SDS011;1894;51.038;13.692;2022-10-16T15:06:13;0.90;;;0.80;;
3757;SDS011;1894;51.038;13.692;2022-10-16T15:08:42;1.40;;;1.07;;
3757;SDS011;1894;51.038;13.692;2022-10-16T15:11:13;4.33;;;1.27;;
3757;SDS011;1894;51.038;13.692;2022-10-16T15:13:45;1.10;;;0.87;;
3757;SDS011;1894;51.038;13.692;2022-10-16T15:16:14;2.17;;;0.70;;
3757;SDS011;1894;51.038;13.692;2022-10-16T15:18:42;1.43;;;0.97;;
3757;SDS011;1894;51.038;13.692;2022-10-16T15:23:55;2.03;;;0.80;;
3757;SDS011;1894;51.038;13.692;2022-10-16T15:26:24;1.60;;;0.80;;
3757;SDS011;1894;51.038;13.692;2022-10-16T15:28:55;1.70;;;1.60;;
3757;SDS011;1894;51.038;13.692;2022-10-16T15:31:23;2.17;;;0.80;;
3757;SDS011;1894;51.038;13.692;2022-10-16T15:33:51;3.23;;;2.40;;
3757;SDS011;1894;51.038;13.692;2022-10-16T15:36:28;1.87;;;1.20;;
3757;SDS011;1894;51.038;13.692;2022-10-16T15:39:03;1.10;;;0.80;;
3757;SDS011;1894;51.038;13.692;2022-10-16T15:41:39;1.00;;;0.70;;
3757;SDS011;1894;51.038;13.692;2022-10-16T15:44:07;1.23;;;0.70;;
3757;SDS011;1894;51.038;13.692;2022-10-16T15:46:35;2.50;;;1.10;;
3757;SDS011;1894;51.038;13.692;2022-10-16T15:49:03;2.70;;;0.73;;
3757;SDS011;1894;51.038;13.692;2022-10-16T15:51:30;1.93;;;0.93;;
3757;SDS011;1894;51.038;13.692;2022-10-16T15:53:59;3.93;;;1.13;;
3757;SDS011;1894;51.038;13.692;2022-10-16T15:56:28;3.90;;;1.77;;
3757;SDS011;1894;51.038;13.692;2022-10-16T15:58:56;2.97;;;2.07;;
3757;SDS011;1894;51.038;13.692;2022-10-16T16:01:24;4.13;;;1.50;;
3757;SDS011;1894;51.038;13.692;2022-10-16T16:03:53;1.83;;;1.43;;
3757;SDS011;1894;51.038;13.692;2022-10-16T16:06:21;3.80;;;2.50;;
3757;SDS011;1894;51.038;13.692;2022-10-16T16:08:51;8.30;;;3.70;;
3757;SDS011;1894;51.038;13.692;2022-10-16T16:11:19;2.63;;;1.87;;
3757;SDS011;1894;51.038;13.692;2022-10-16T16:13:46;5.40;;;2.00;;
3757;SDS011;1894;51.038;13.692;2022-10-16T16:16:14;2.90;;;1.63;;
3757;SDS011;1894;51.038;13.692;2022-10-16T16:18:43;8.23;;;3.40;;
3757;SDS011;1894;51.038;13.692;2022-10-16T16:21:10;4.30;;;2.60;;
3757;SDS011;1894;51.038;13.692;2022-10-16T16:23:38;6.70;;;3.70;;
3757;SDS011;1894;51.038;13.692;2022-10-16T16:26:07;7.50;;;4.60;;
3757;SDS011;1894;51.038;13.692;2022-10-16T16:28:41;16.90;;;12.03;;
3757;SDS011;1894;51.038;13.692;2022-10-16T16:31:09;9.27;;;6.40;;
3757;SDS011;1894;51.038;13.692;2022-10-16T16:33:36;8.00;;;5.10;;
3757;SDS011;1894;51.038;13.692;2022-10-16T16:36:04;4.73;;;3.67;;
3757;SDS011;1894;51.038;13.692;2022-10-16T16:38:39;4.53;;;3.20;;
3757;SDS011;1894;51.038;13.692;2022-10-16T16:41:16;8.30;;;6.20;;
3757;SDS011;1894;51.038;13.692;2022-10-16T16:43:49;5.90;;;4.80;;
3757;SDS011;1894;51.038;13.692;2022-10-16T16:46:19;6.30;;;5.47;;
3757;SDS011;1894;51.038;13.692;2022-10-16T16:48:47;9.00;;;5.67;;
3757;SDS011;1894;51.038;13.692;2022-10-16T16:51:17;13.43;;;6.97;;
3757;SDS011;1894;51.038;13.692;2022-10-16T16:53:47;8.07;;;7.27;;
3757;SDS011;1894;51.038;13.692;2022-10-16T16:56:17;12.90;;;8.97;;
3757;SDS011;1894;51.038;13.692;2022-10-16T16:58:47;11.80;;;7.47;;
3757;SDS011;1894;51.038;13.692;2022-10-16T17:01:16;7.20;;;5.73;;
3757;SDS011;1894;51.038;13.692;2022-10-16T17:03:46;11.90;;;5.33;;
3757;SDS011;1894;51.038;13.692;2022-10-16T17:06:17;7.20;;;4.77;;
3757;SDS011;1894;51.038;13.692;2022-10-16T17:08:47;7.47;;;4.93;;
3757;SDS011;1894;51.038;13.692;2022-10-16T17:11:20;5.73;;;4.23;;
3757;SDS011;1894;51.038;13.692;2022-10-16T17:13:51;6.60;;;4.33;;
3757;SDS011;1894;51.038;13.692;2022-10-16T17:16:33;6.50;;;4.77;;
3757;SDS011;1894;51.038;13.692;2022-10-16T17:19:03;10.37;;;4.43;;
3757;SDS011;1894;51.038;13.692;2022-10-16T17:21:33;15.07;;;8.00;;
3757;SDS011;1894;51.038;13.692;2022-10-16T17:24:01;4.10;;;3.70;;
3757;SDS011;1894;51.038;13.692;2022-10-16T17:26:29;13.70;;;3.73;;
3757;SDS011;1894;51.038;13.692;2022-10-16T17:28:58;6.70;;;4.03;;
3757;SDS011;1894;51.038;13.692;2022-10-16T17:31:28;11.90;;;5.60;;
3757;SDS011;1894;51.038;13.692;2022-10-16T17:34:01;7.37;;;5.67;;
3757;SDS011;1894;51.038;13.692;2022-10-16T17:36:32;10.27;;;6.90;;
3757;SDS011;1894;51.038;13.692;2022-10-16T17:39:06;16.23;;;6.93;;
3757;SDS011;1894;51.038;13.692;2022-10-16T17:41:34;20.80;;;15.20;;
3757;SDS011;1894;51.038;13.692;2022-10-16T17:44:02;24.03;;;17.70;;
3757;SDS011;1894;51.038;13.692;2022-10-16T17:46:30;15.30;;;11.20;;
3757;SDS011;1894;51.038;13.692;2022-10-16T17:49:05;7.50;;;3.80;;
3757;SDS011;1894;51.038;13.692;2022-10-16T17:51:32;4.60;;;2.70;;
3757;SDS011;1894;51.038;13.692;2022-10-16T17:54:00;2.70;;;2.50;;
3757;SDS011;1894;51.038;13.692;2022-10-16T17:56:28;4.00;;;3.60;;
3757;SDS011;1894;51.038;13.692;2022-10-16T17:58:56;5.90;;;3.93;;
3757;SDS011;1894;51.038;13.692;2022-10-16T18:01:27;5.97;;;3.80;;
3757;SDS011;1894;51.038;13.692;2022-10-16T18:04:01;3.40;;;3.10;;
3757;SDS011;1894;51.038;13.692;2022-10-16T18:06:35;3.17;;;2.87;;
3757;SDS011;1894;51.038;13.692;2022-10-16T18:09:05;5.27;;;2.83;;